sensor_id;sensor_type;location;lat;lon;timestamp;temperature;humidity
7155;DHT22;3619;53.784;10.440;2023-07-29T00:02:18;17.60;99.90
7155;DHT22;3619;53.784;10.440;2023-07-29T00:04:45;17.60;99.90
7155;DHT22;3619;53.784;10.440;2023-07-29T00:07:12;17.60;99.90
7155;DHT22;3619;53.784;10.440;2023-07-29T00:09:38;17.60;99.90
7155;DHT22;3619;53.784;10.440;2023-07-29T00:12:05;17.60;99.90
7155;DHT22;3619;53.784;10.440;2023-07-29T00:14:37;17.60;99.90
7155;DHT22;3619;53.784;10.440;2023-07-29T00:17:04;17.50;99.90
7155;DHT22;3619;53.784;10.440;2023-07-29T00:19:32;17.50;99.90
7155;DHT22;3619;53.784;10.440;2023-07-29T00:21:59;17.50;99.90
7155;DHT22;3619;53.784;10.440;2023-07-29T00:24:26;17.50;99.90
7155;DHT22;3619;53.784;10.440;2023-07-29T00:26:52;17.40;99.90
7155;DHT22;3619;53.784;10.440;2023-07-29T00:29:19;17.30;99.90
7155;DHT22;3619;53.784;10.440;2023-07-29T00:31:47;17.40;99.90
7155;DHT22;3619;53.784;10.440;2023-07-29T00:34:14;17.40;99.90
7155;DHT22;3619;53.784;10.440;2023-07-29T00:36:45;17.30;99.90
7155;DHT22;3619;53.784;10.440;2023-07-29T00:39:11;17.30;99.90
7155;DHT22;3619;53.784;10.440;2023-07-29T00:41:38;17.30;99.90
7155;DHT22;3619;53.784;10.440;2023-07-29T00:44:08;17.20;99.90
7155;DHT22;3619;53.784;10.440;2023-07-29T00:46:36;17.20;99.90
7155;DHT22;3619;53.784;10.440;2023-07-29T00:49:06;17.20;99.90
7155;DHT22;3619;53.784;10.440;2023-07-29T00:51:33;17.20;99.90
7155;DHT22;3619;53.784;10.440;2023-07-29T00:53:59;17.20;99.90
7155;DHT22;3619;53.784;10.440;2023-07-29T00:56:26;17.20;99.90
7155;DHT22;3619;53.784;10.440;2023-07-29T00:58:54;17.20;99.90
7155;DHT22;3619;53.784;10.440;2023-07-29T01:01:24;17.20;99.90
7155;DHT22;3619;53.784;10.440;2023-07-29T01:03:52;17.20;99.90
7155;DHT22;3619;53.784;10.440;2023-07-29T01:06:32;17.10;99.90
7155;DHT22;3619;53.784;10.440;2023-07-29T01:09:02;17.10;99.90
7155;DHT22;3619;53.784;10.440;2023-07-29T01:11:38;17.00;99.90
7155;DHT22;3619;53.784;10.440;2023-07-29T01:14:14;17.00;99.90
7155;DHT22;3619;53.784;10.440;2023-07-29T01:16:47;17.00;99.90
7155;DHT22;3619;53.784;10.440;2023-07-29T01:19:32;17.00;99.90
7155;DHT22;3619;53.784;10.440;2023-07-29T01:22:04;16.90;99.90
7155;DHT22;3619;53.784;10.440;2023-07-29T01:24:35;16.90;99.90
7155;DHT22;3619;53.784;10.440;2023-07-29T01:27:02;17.00;99.90
7155;DHT22;3619;53.784;10.440;2023-07-29T01:29:30;17.00;99.90
7155;DHT22;3619;53.784;10.440;2023-07-29T01:32:03;17.00;99.90
7155;DHT22;3619;53.784;10.440;2023-07-29T01:34:35;17.00;99.90
7155;DHT22;3619;53.784;10.440;2023-07-29T01:37:06;17.00;99.90
7155;DHT22;3619;53.784;10.440;2023-07-29T01:39:37;17.00;99.90
7155;DHT22;3619;53.784;10.440;2023-07-29T01:42:04;17.00;99.90
7155;DHT22;3619;53.784;10.440;2023-07-29T01:44:32;17.10;99.90
7155;DHT22;3619;53.784;10.440;2023-07-29T01:46:59;17.10;99.90
7155;DHT22;3619;53.784;10.440;2023-07-29T01:49:26;17.10;99.90
7155;DHT22;3619;53.784;10.440;2023-07-29T01:51:53;17.10;99.90
7155;DHT22;3619;53.784;10.440;2023-07-29T01:54:20;17.10;99.90
7155;DHT22;3619;53.784;10.440;2023-07-29T01:56:48;17.20;99.90
7155;DHT22;3619;53.784;10.440;2023-07-29T01:59:17;17.20;99.90
7155;DHT22;3619;53.784;10.440;2023-07-29T02:01:44;17.20;99.90
7155;DHT22;3619;53.784;10.440;2023-07-29T02:04:12;17.30;99.90
7155;DHT22;3619;53.784;10.440;2023-07-29T02:06:40;17.30;99.90
7155;DHT22;3619;53.784;10.440;2023-07-29T02:09:06;17.30;99.90
7155;DHT22;3619;53.784;10.440;2023-07-29T02:11:34;17.30;99.90
7155;DHT22;3619;53.784;10.440;2023-07-29T02:14:02;17.40;99.90
7155;DHT22;3619;53.784;10.440;2023-07-29T02:16:29;17.40;99.90
7155;DHT22;3619;53.784;10.440;2023-07-29T02:18:58;17.50;99.90
7155;DHT22;3619;53.784;10.440;2023-07-29T02:21:24;17.50;99.90
7155;DHT22;3619;53.784;10.440;2023-07-29T02:23:52;17.50;99.90
7155;DHT22;3619;53.784;10.440;2023-07-29T02:26:19;17.50;99.90
7155;DHT22;3619;53.784;10.440;2023-07-29T02:28:46;17.50;99.90
7155;DHT22;3619;53.784;10.440;2023-07-29T02:31:17;17.50;99.90
7155;DHT22;3619;53.784;10.440;2023-07-29T02:33:44;17.50;99.90
7155;DHT22;3619;53.784;10.440;2023-07-29T02:36:12;17.50;99.90
7155;DHT22;3619;53.784;10.440;2023-07-29T02:38:40;17.50;99.90
7155;DHT22;3619;53.784;10.440;2023-07-29T02:41:07;17.60;99.90
7155;DHT22;3619;53.784;10.440;2023-07-29T02:43:35;17.50;99.90
7155;DHT22;3619;53.784;10.440;2023-07-29T02:46:01;17.50;99.90
7155;DHT22;3619;53.784;10.440;2023-07-29T02:48:30;17.50;99.90
7155;DHT22;3619;53.784;10.440;2023-07-29T02:50:56;17.50;99.90
7155;DHT22;3619;53.784;10.440;2023-07-29T02:53:24;17.50;99.90
7155;DHT22;3619;53.784;10.440;2023-07-29T02:55:51;17.50;99.90
7155;DHT22;3619;53.784;10.440;2023-07-29T02:58:18;17.50;99.90
7155;DHT22;3619;53.784;10.440;2023-07-29T03:00:46;17.50;99.90
7155;DHT22;3619;53.784;10.440;2023-07-29T03:03:14;17.50;99.90
7155;DHT22;3619;53.784;10.440;2023-07-29T03:05:42;17.50;99.90
7155;DHT22;3619;53.784;10.440;2023-07-29T03:08:09;17.60;99.90
7155;DHT22;3619;53.784;10.440;2023-07-29T03:10:36;17.60;99.90
7155;DHT22;3619;53.784;10.440;2023-07-29T03:13:02;17.70;99.90
7155;DHT22;3619;53.784;10.440;2023-07-29T03:15:29;17.70;99.90
7155;DHT22;3619;53.784;10.440;2023-07-29T03:17:56;17.70;99.90
7155;DHT22;3619;53.784;10.440;2023-07-29T03:20:23;17.70;99.90
7155;DHT22;3619;53.784;10.440;2023-07-29T03:22:53;17.80;99.90
7155;DHT22;3619;53.784;10.440;2023-07-29T03:25:22;17.70;99.90
7155;DHT22;3619;53.784;10.440;2023-07-29T03:27:49;17.70;99.90
7155;DHT22;3619;53.784;10.440;2023-07-29T03:30:19;17.70;99.90
7155;DHT22;3619;53.784;10.440;2023-07-29T03:32:46;17.70;99.90
7155;DHT22;3619;53.784;10.440;2023-07-29T03:35:13;17.70;99.90
7155;DHT22;3619;53.784;10.440;2023-07-29T03:37:40;17.70;99.90
7155;DHT22;3619;53.784;10.440;2023-07-29T03:40:09;17.70;99.90
7155;DHT22;3619;53.784;10.440;2023-07-29T03:42:36;17.70;99.90
7155;DHT22;3619;53.784;10.440;2023-07-29T03:45:04;17.60;99.90
7155;DHT22;3619;53.784;10.440;2023-07-29T03:47:31;17.60;99.90
7155;DHT22;3619;53.784;10.440;2023-07-29T03:50:00;17.60;99.90
7155;DHT22;3619;53.784;10.440;2023-07-29T03:52:27;17.60;99.90
7155;DHT22;3619;53.784;10.440;2023-07-29T03:54:54;17.60;99.90
7155;DHT22;3619;53.784;10.440;2023-07-29T03:57:22;17.60;99.90
7155;DHT22;3619;53.784;10.440;2023-07-29T03:59:49;17.60;99.90
7155;DHT22;3619;53.784;10.440;2023-07-29T04:02:16;17.60;99.90
7155;DHT22;3619;53.784;10.440;2023-07-29T04:04:43;17.60;99.90
7155;DHT22;3619;53.784;10.440;2023-07-29T04:07:13;17.70;99.90
7155;DHT22;3619;53.784;10.440;2023-07-29T04:09:40;17.60;99.90
7155;DHT22;3619;53.784;10.440;2023-07-29T04:12:11;17.60;99.90
7155;DHT22;3619;53.784;10.440;2023-07-29T04:14:40;17.60;99.90
7155;DHT22;3619;53.784;10.440;2023-07-29T04:17:07;17.60;99.90
7155;DHT22;3619;53.784;10.440;2023-07-29T04:19:34;17.60;99.90
7155;DHT22;3619;53.784;10.440;2023-07-29T04:22:01;17.70;99.90
7155;DHT22;3619;53.784;10.440;2023-07-29T04:24:28;17.70;99.90
7155;DHT22;3619;53.784;10.440;2023-07-29T04:26:54;17.70;99.90
7155;DHT22;3619;53.784;10.440;2023-07-29T04:29:21;17.70;99.90
7155;DHT22;3619;53.784;10.440;2023-07-29T04:31:50;17.70;99.90
7155;DHT22;3619;53.784;10.440;2023-07-29T04:34:20;17.70;99.90
7155;DHT22;3619;53.784;10.440;2023-07-29T04:36:47;17.80;99.90
7155;DHT22;3619;53.784;10.440;2023-07-29T04:39:14;17.80;99.90
7155;DHT22;3619;53.784;10.440;2023-07-29T04:41:41;17.90;99.90
7155;DHT22;3619;53.784;10.440;2023-07-29T04:44:08;17.90;99.90
7155;DHT22;3619;53.784;10.440;2023-07-29T04:46:36;18.00;99.90
7155;DHT22;3619;53.784;10.440;2023-07-29T04:49:04;18.00;99.90
7155;DHT22;3619;53.784;10.440;2023-07-29T04:51:31;18.00;99.90
7155;DHT22;3619;53.784;10.440;2023-07-29T04:53:58;18.10;99.90
7155;DHT22;3619;53.784;10.440;2023-07-29T04:56:25;18.20;99.90
7155;DHT22;3619;53.784;10.440;2023-07-29T04:58:52;18.20;99.90
7155;DHT22;3619;53.784;10.440;2023-07-29T05:01:20;18.30;99.90
7155;DHT22;3619;53.784;10.440;2023-07-29T05:03:47;18.30;99.90
7155;DHT22;3619;53.784;10.440;2023-07-29T05:06:15;18.30;99.90
7155;DHT22;3619;53.784;10.440;2023-07-29T05:08:42;18.30;99.90
7155;DHT22;3619;53.784;10.440;2023-07-29T05:11:09;18.30;99.90
7155;DHT22;3619;53.784;10.440;2023-07-29T05:13:36;18.30;99.90
7155;DHT22;3619;53.784;10.440;2023-07-29T05:16:03;18.30;99.90
7155;DHT22;3619;53.784;10.440;2023-07-29T05:18:30;18.30;99.90
7155;DHT22;3619;53.784;10.440;2023-07-29T05:20:57;18.30;99.90
7155;DHT22;3619;53.784;10.440;2023-07-29T05:23:25;18.30;99.90
7155;DHT22;3619;53.784;10.440;2023-07-29T05:25:52;18.30;99.90
7155;DHT22;3619;53.784;10.440;2023-07-29T05:28:18;18.30;99.90
7155;DHT22;3619;53.784;10.440;2023-07-29T05:30:47;18.30;99.90
7155;DHT22;3619;53.784;10.440;2023-07-29T05:33:14;18.30;99.90
7155;DHT22;3619;53.784;10.440;2023-07-29T05:35:41;18.30;99.90
7155;DHT22;3619;53.784;10.440;2023-07-29T05:38:09;18.40;99.90
7155;DHT22;3619;53.784;10.440;2023-07-29T05:40:37;18.30;99.90
7155;DHT22;3619;53.784;10.440;2023-07-29T05:43:04;18.30;99.90
7155;DHT22;3619;53.784;10.440;2023-07-29T05:45:31;18.40;99.90
7155;DHT22;3619;53.784;10.440;2023-07-29T05:47:59;18.40;99.90
7155;DHT22;3619;53.784;10.440;2023-07-29T05:50:26;18.50;99.90
7155;DHT22;3619;53.784;10.440;2023-07-29T05:52:53;18.50;99.90
7155;DHT22;3619;53.784;10.440;2023-07-29T05:55:20;18.50;99.90
7155;DHT22;3619;53.784;10.440;2023-07-29T05:57:48;18.60;99.90
7155;DHT22;3619;53.784;10.440;2023-07-29T06:00:15;18.70;99.90
7155;DHT22;3619;53.784;10.440;2023-07-29T06:02:44;18.80;99.90
7155;DHT22;3619;53.784;10.440;2023-07-29T06:05:12;18.80;99.90
7155;DHT22;3619;53.784;10.440;2023-07-29T06:07:39;18.80;99.90
7155;DHT22;3619;53.784;10.440;2023-07-29T06:10:12;18.80;99.90
7155;DHT22;3619;53.784;10.440;2023-07-29T06:12:47;18.80;99.90
7155;DHT22;3619;53.784;10.440;2023-07-29T06:15:15;18.70;99.90
7155;DHT22;3619;53.784;10.440;2023-07-29T06:17:42;18.80;99.90
7155;DHT22;3619;53.784;10.440;2023-07-29T06:20:10;18.90;99.90
7155;DHT22;3619;53.784;10.440;2023-07-29T06:22:36;19.00;99.90
7155;DHT22;3619;53.784;10.440;2023-07-29T06:25:04;19.00;99.90
7155;DHT22;3619;53.784;10.440;2023-07-29T06:27:31;19.10;99.90
7155;DHT22;3619;53.784;10.440;2023-07-29T06:29:57;19.10;99.90
7155;DHT22;3619;53.784;10.440;2023-07-29T06:32:26;19.10;99.90
7155;DHT22;3619;53.784;10.440;2023-07-29T06:34:52;19.20;99.90
7155;DHT22;3619;53.784;10.440;2023-07-29T06:37:20;19.30;99.90
7155;DHT22;3619;53.784;10.440;2023-07-29T06:39:47;19.40;99.90
7155;DHT22;3619;53.784;10.440;2023-07-29T06:42:14;19.40;99.90
7155;DHT22;3619;53.784;10.440;2023-07-29T06:44:41;19.40;99.90
7155;DHT22;3619;53.784;10.440;2023-07-29T06:47:07;19.40;99.90
7155;DHT22;3619;53.784;10.440;2023-07-29T06:49:36;19.40;99.90
7155;DHT22;3619;53.784;10.440;2023-07-29T06:52:03;19.50;99.90
7155;DHT22;3619;53.784;10.440;2023-07-29T06:54:29;19.60;99.90
7155;DHT22;3619;53.784;10.440;2023-07-29T06:56:56;19.70;99.90
7155;DHT22;3619;53.784;10.440;2023-07-29T06:59:23;19.70;99.90
7155;DHT22;3619;53.784;10.440;2023-07-29T07:01:51;19.70;99.90
7155;DHT22;3619;53.784;10.440;2023-07-29T07:04:18;19.80;99.90
7155;DHT22;3619;53.784;10.440;2023-07-29T07:06:46;19.90;99.90
7155;DHT22;3619;53.784;10.440;2023-07-29T07:09:13;19.90;99.90
7155;DHT22;3619;53.784;10.440;2023-07-29T07:11:39;19.90;99.90
7155;DHT22;3619;53.784;10.440;2023-07-29T07:14:06;19.90;99.90
7155;DHT22;3619;53.784;10.440;2023-07-29T07:16:33;19.90;99.90
7155;DHT22;3619;53.784;10.440;2023-07-29T07:19:02;20.10;99.90
7155;DHT22;3619;53.784;10.440;2023-07-29T07:21:28;20.20;99.90
7155;DHT22;3619;53.784;10.440;2023-07-29T07:23:59;20.30;99.90
7155;DHT22;3619;53.784;10.440;2023-07-29T07:26:27;20.70;99.90
7155;DHT22;3619;53.784;10.440;2023-07-29T07:29:05;20.80;99.90
7155;DHT22;3619;53.784;10.440;2023-07-29T07:31:33;20.80;99.90
7155;DHT22;3619;53.784;10.440;2023-07-29T07:34:00;20.80;99.90
7155;DHT22;3619;53.784;10.440;2023-07-29T07:36:29;20.90;99.90
7155;DHT22;3619;53.784;10.440;2023-07-29T07:39:01;21.00;99.90
7155;DHT22;3619;53.784;10.440;2023-07-29T07:41:29;20.90;99.90
7155;DHT22;3619;53.784;10.440;2023-07-29T07:43:56;20.80;99.90
7155;DHT22;3619;53.784;10.440;2023-07-29T07:46:25;20.60;99.90
7155;DHT22;3619;53.784;10.440;2023-07-29T07:48:52;20.50;99.90
7155;DHT22;3619;53.784;10.440;2023-07-29T07:51:18;20.30;99.90
7155;DHT22;3619;53.784;10.440;2023-07-29T07:53:46;20.10;99.90
7155;DHT22;3619;53.784;10.440;2023-07-29T07:56:14;20.00;99.90
7155;DHT22;3619;53.784;10.440;2023-07-29T07:58:42;19.90;99.90
7155;DHT22;3619;53.784;10.440;2023-07-29T08:01:09;19.80;99.90
7155;DHT22;3619;53.784;10.440;2023-07-29T08:03:36;19.90;99.90
7155;DHT22;3619;53.784;10.440;2023-07-29T08:06:05;19.90;99.90
7155;DHT22;3619;53.784;10.440;2023-07-29T08:08:33;20.00;99.90
7155;DHT22;3619;53.784;10.440;2023-07-29T08:11:00;20.10;99.90
7155;DHT22;3619;53.784;10.440;2023-07-29T08:13:28;20.20;99.90
7155;DHT22;3619;53.784;10.440;2023-07-29T08:15:55;20.40;99.90
7155;DHT22;3619;53.784;10.440;2023-07-29T08:18:22;20.50;99.90
7155;DHT22;3619;53.784;10.440;2023-07-29T08:20:53;20.40;99.90
7155;DHT22;3619;53.784;10.440;2023-07-29T08:23:21;20.40;99.90
7155;DHT22;3619;53.784;10.440;2023-07-29T08:25:52;20.30;99.90
7155;DHT22;3619;53.784;10.440;2023-07-29T08:28:20;20.20;99.90
7155;DHT22;3619;53.784;10.440;2023-07-29T08:30:50;20.10;99.90
7155;DHT22;3619;53.784;10.440;2023-07-29T08:33:17;20.00;99.90
7155;DHT22;3619;53.784;10.440;2023-07-29T08:35:44;19.90;99.90
7155;DHT22;3619;53.784;10.440;2023-07-29T08:38:10;19.70;99.90
7155;DHT22;3619;53.784;10.440;2023-07-29T08:40:45;19.60;99.90
7155;DHT22;3619;53.784;10.440;2023-07-29T08:43:12;19.50;99.90
7155;DHT22;3619;53.784;10.440;2023-07-29T08:45:40;19.40;99.90
7155;DHT22;3619;53.784;10.440;2023-07-29T08:48:10;19.40;99.90
7155;DHT22;3619;53.784;10.440;2023-07-29T08:50:37;19.30;99.90
7155;DHT22;3619;53.784;10.440;2023-07-29T08:53:05;19.30;99.90
7155;DHT22;3619;53.784;10.440;2023-07-29T08:55:32;19.30;99.90
7155;DHT22;3619;53.784;10.440;2023-07-29T08:58:02;19.40;99.90
7155;DHT22;3619;53.784;10.440;2023-07-29T09:00:31;19.30;99.90
7155;DHT22;3619;53.784;10.440;2023-07-29T09:02:58;19.40;99.90
7155;DHT22;3619;53.784;10.440;2023-07-29T09:05:33;19.50;99.90
7155;DHT22;3619;53.784;10.440;2023-07-29T09:08:03;19.60;99.90
7155;DHT22;3619;53.784;10.440;2023-07-29T09:10:35;19.80;99.90
7155;DHT22;3619;53.784;10.440;2023-07-29T09:13:03;19.80;99.90
7155;DHT22;3619;53.784;10.440;2023-07-29T09:15:31;19.90;99.90
7155;DHT22;3619;53.784;10.440;2023-07-29T09:17:58;20.10;99.90
7155;DHT22;3619;53.784;10.440;2023-07-29T09:20:26;20.10;99.90
7155;DHT22;3619;53.784;10.440;2023-07-29T09:22:57;20.20;99.90
7155;DHT22;3619;53.784;10.440;2023-07-29T09:25:25;20.10;99.90
7155;DHT22;3619;53.784;10.440;2023-07-29T09:27:52;20.10;99.90
7155;DHT22;3619;53.784;10.440;2023-07-29T09:30:19;20.00;99.90
7155;DHT22;3619;53.784;10.440;2023-07-29T09:32:54;20.00;99.90
7155;DHT22;3619;53.784;10.440;2023-07-29T09:35:21;20.00;99.90
7155;DHT22;3619;53.784;10.440;2023-07-29T09:37:49;20.10;99.90
7155;DHT22;3619;53.784;10.440;2023-07-29T09:40:20;20.10;99.90
7155;DHT22;3619;53.784;10.440;2023-07-29T09:42:51;20.20;99.90
7155;DHT22;3619;53.784;10.440;2023-07-29T09:45:28;20.20;99.90
7155;DHT22;3619;53.784;10.440;2023-07-29T09:47:59;20.30;99.90
7155;DHT22;3619;53.784;10.440;2023-07-29T09:50:27;20.40;99.90
7155;DHT22;3619;53.784;10.440;2023-07-29T09:52:55;20.50;99.90
7155;DHT22;3619;53.784;10.440;2023-07-29T09:55:26;20.50;99.90
7155;DHT22;3619;53.784;10.440;2023-07-29T09:57:54;20.50;99.90
7155;DHT22;3619;53.784;10.440;2023-07-29T10:00:23;20.50;99.90
7155;DHT22;3619;53.784;10.440;2023-07-29T10:02:57;20.50;99.90
7155;DHT22;3619;53.784;10.440;2023-07-29T10:05:26;20.70;99.90
7155;DHT22;3619;53.784;10.440;2023-07-29T10:07:54;20.70;99.90
7155;DHT22;3619;53.784;10.440;2023-07-29T10:10:26;21.00;99.90
7155;DHT22;3619;53.784;10.440;2023-07-29T10:12:56;21.00;99.90
7155;DHT22;3619;53.784;10.440;2023-07-29T10:15:24;21.00;99.90
7155;DHT22;3619;53.784;10.440;2023-07-29T10:17:52;21.00;99.90
7155;DHT22;3619;53.784;10.440;2023-07-29T10:20:20;21.10;99.90
7155;DHT22;3619;53.784;10.440;2023-07-29T10:22:47;21.10;99.90
7155;DHT22;3619;53.784;10.440;2023-07-29T10:25:16;21.00;99.90
7155;DHT22;3619;53.784;10.440;2023-07-29T10:27:48;21.00;99.90
7155;DHT22;3619;53.784;10.440;2023-07-29T10:30:16;21.10;99.90
7155;DHT22;3619;53.784;10.440;2023-07-29T10:32:43;21.20;99.90
7155;DHT22;3619;53.784;10.440;2023-07-29T10:35:12;21.20;99.90
7155;DHT22;3619;53.784;10.440;2023-07-29T10:37:40;21.10;99.90
7155;DHT22;3619;53.784;10.440;2023-07-29T10:40:10;21.20;99.90
7155;DHT22;3619;53.784;10.440;2023-07-29T10:42:37;21.10;99.90
7155;DHT22;3619;53.784;10.440;2023-07-29T10:45:20;21.10;99.90
7155;DHT22;3619;53.784;10.440;2023-07-29T10:47:48;21.40;99.90
7155;DHT22;3619;53.784;10.440;2023-07-29T10:50:20;21.80;99.90
7155;DHT22;3619;53.784;10.440;2023-07-29T10:52:51;22.10;99.90
7155;DHT22;3619;53.784;10.440;2023-07-29T10:55:27;22.00;99.90
7155;DHT22;3619;53.784;10.440;2023-07-29T10:58:06;22.00;99.90
7155;DHT22;3619;53.784;10.440;2023-07-29T11:00:36;22.00;99.90
7155;DHT22;3619;53.784;10.440;2023-07-29T11:03:05;22.10;99.90
7155;DHT22;3619;53.784;10.440;2023-07-29T11:05:44;22.10;99.90
7155;DHT22;3619;53.784;10.440;2023-07-29T11:08:22;22.30;99.90
7155;DHT22;3619;53.784;10.440;2023-07-29T11:11:06;22.30;99.90
7155;DHT22;3619;53.784;10.440;2023-07-29T11:13:37;22.40;99.90
7155;DHT22;3619;53.784;10.440;2023-07-29T11:16:06;22.40;99.90
7155;DHT22;3619;53.784;10.440;2023-07-29T11:18:35;22.30;99.90
7155;DHT22;3619;53.784;10.440;2023-07-29T11:21:03;22.20;99.90
7155;DHT22;3619;53.784;10.440;2023-07-29T11:23:33;22.40;99.90
7155;DHT22;3619;53.784;10.440;2023-07-29T11:26:04;22.50;99.90
7155;DHT22;3619;53.784;10.440;2023-07-29T11:28:30;22.60;99.90
7155;DHT22;3619;53.784;10.440;2023-07-29T11:30:59;22.60;99.90
7155;DHT22;3619;53.784;10.440;2023-07-29T11:33:27;22.60;99.90
7155;DHT22;3619;53.784;10.440;2023-07-29T11:35:55;22.50;99.90
7155;DHT22;3619;53.784;10.440;2023-07-29T11:38:23;22.40;99.90
7155;DHT22;3619;53.784;10.440;2023-07-29T11:40:58;22.20;99.90
7155;DHT22;3619;53.784;10.440;2023-07-29T11:43:25;22.00;99.90
7155;DHT22;3619;53.784;10.440;2023-07-29T11:45:52;22.00;99.90
7155;DHT22;3619;53.784;10.440;2023-07-29T11:48:27;21.90;99.90
7155;DHT22;3619;53.784;10.440;2023-07-29T11:50:54;21.90;99.90
7155;DHT22;3619;53.784;10.440;2023-07-29T11:53:21;22.00;99.90
7155;DHT22;3619;53.784;10.440;2023-07-29T11:55:50;21.80;99.90
7155;DHT22;3619;53.784;10.440;2023-07-29T11:58:17;21.90;99.90
7155;DHT22;3619;53.784;10.440;2023-07-29T12:00:44;22.10;99.90
7155;DHT22;3619;53.784;10.440;2023-07-29T12:03:11;22.10;99.90
7155;DHT22;3619;53.784;10.440;2023-07-29T12:05:39;22.20;99.90
7155;DHT22;3619;53.784;10.440;2023-07-29T12:08:08;22.50;99.90
7155;DHT22;3619;53.784;10.440;2023-07-29T12:10:35;23.00;99.90
7155;DHT22;3619;53.784;10.440;2023-07-29T12:13:02;22.90;99.90
7155;DHT22;3619;53.784;10.440;2023-07-29T12:15:43;22.90;99.90
7155;DHT22;3619;53.784;10.440;2023-07-29T12:18:10;22.90;99.90
7155;DHT22;3619;53.784;10.440;2023-07-29T12:20:44;22.90;99.90
7155;DHT22;3619;53.784;10.440;2023-07-29T12:23:10;22.60;99.90
7155;DHT22;3619;53.784;10.440;2023-07-29T12:25:40;22.50;99.90
7155;DHT22;3619;53.784;10.440;2023-07-29T12:28:07;22.40;99.90
7155;DHT22;3619;53.784;10.440;2023-07-29T12:30:34;22.60;99.90
7155;DHT22;3619;53.784;10.440;2023-07-29T12:33:04;22.70;99.90
7155;DHT22;3619;53.784;10.440;2023-07-29T12:35:45;22.70;99.90
7155;DHT22;3619;53.784;10.440;2023-07-29T12:38:20;23.00;99.90
7155;DHT22;3619;53.784;10.440;2023-07-29T12:40:48;23.30;99.90
7155;DHT22;3619;53.784;10.440;2023-07-29T12:43:15;23.70;99.90
7155;DHT22;3619;53.784;10.440;2023-07-29T12:45:41;23.80;99.90
7155;DHT22;3619;53.784;10.440;2023-07-29T12:48:10;23.70;99.90
7155;DHT22;3619;53.784;10.440;2023-07-29T12:50:37;23.60;99.90
7155;DHT22;3619;53.784;10.440;2023-07-29T12:53:07;23.60;99.90
7155;DHT22;3619;53.784;10.440;2023-07-29T12:55:35;23.70;99.90
7155;DHT22;3619;53.784;10.440;2023-07-29T12:58:03;23.90;99.90
7155;DHT22;3619;53.784;10.440;2023-07-29T13:00:30;23.90;99.90
7155;DHT22;3619;53.784;10.440;2023-07-29T13:02:57;24.10;99.90
7155;DHT22;3619;53.784;10.440;2023-07-29T13:05:24;24.00;99.90
7155;DHT22;3619;53.784;10.440;2023-07-29T13:07:51;24.00;99.90
7155;DHT22;3619;53.784;10.440;2023-07-29T13:10:19;24.00;99.90
7155;DHT22;3619;53.784;10.440;2023-07-29T13:12:46;24.00;99.90
7155;DHT22;3619;53.784;10.440;2023-07-29T13:15:14;24.00;99.90
7155;DHT22;3619;53.784;10.440;2023-07-29T13:17:41;24.10;99.90
7155;DHT22;3619;53.784;10.440;2023-07-29T13:20:08;23.80;99.90
7155;DHT22;3619;53.784;10.440;2023-07-29T13:22:36;23.60;99.90
7155;DHT22;3619;53.784;10.440;2023-07-29T13:25:03;23.40;99.90
7155;DHT22;3619;53.784;10.440;2023-07-29T13:27:31;23.30;99.90
7155;DHT22;3619;53.784;10.440;2023-07-29T13:29:58;23.00;99.90
7155;DHT22;3619;53.784;10.440;2023-07-29T13:32:25;23.10;99.90
7155;DHT22;3619;53.784;10.440;2023-07-29T13:34:54;23.00;99.90
7155;DHT22;3619;53.784;10.440;2023-07-29T13:37:20;23.00;99.90
7155;DHT22;3619;53.784;10.440;2023-07-29T13:39:47;23.20;99.90
7155;DHT22;3619;53.784;10.440;2023-07-29T13:42:14;23.40;99.90
7155;DHT22;3619;53.784;10.440;2023-07-29T13:44:42;23.60;99.90
7155;DHT22;3619;53.784;10.440;2023-07-29T13:47:09;23.40;99.90
7155;DHT22;3619;53.784;10.440;2023-07-29T13:49:35;23.20;99.90
7155;DHT22;3619;53.784;10.440;2023-07-29T13:52:02;23.10;99.90
7155;DHT22;3619;53.784;10.440;2023-07-29T13:54:29;23.30;99.90
7155;DHT22;3619;53.784;10.440;2023-07-29T13:56:57;23.50;99.90
7155;DHT22;3619;53.784;10.440;2023-07-29T13:59:24;23.70;99.90
7155;DHT22;3619;53.784;10.440;2023-07-29T14:01:53;23.70;99.90
7155;DHT22;3619;53.784;10.440;2023-07-29T14:04:19;23.60;99.90
7155;DHT22;3619;53.784;10.440;2023-07-29T14:06:46;23.40;99.90
7155;DHT22;3619;53.784;10.440;2023-07-29T14:09:13;23.30;99.90
7155;DHT22;3619;53.784;10.440;2023-07-29T14:11:40;23.10;99.90
7155;DHT22;3619;53.784;10.440;2023-07-29T14:14:07;23.10;99.90
7155;DHT22;3619;53.784;10.440;2023-07-29T14:16:34;23.20;99.90
7155;DHT22;3619;53.784;10.440;2023-07-29T14:19:02;23.40;99.90
7155;DHT22;3619;53.784;10.440;2023-07-29T14:21:28;23.50;99.90
7155;DHT22;3619;53.784;10.440;2023-07-29T14:23:55;23.60;99.90
7155;DHT22;3619;53.784;10.440;2023-07-29T14:26:22;23.70;99.90
7155;DHT22;3619;53.784;10.440;2023-07-29T14:28:49;23.80;99.90
7155;DHT22;3619;53.784;10.440;2023-07-29T14:31:17;23.80;99.90
7155;DHT22;3619;53.784;10.440;2023-07-29T14:33:45;23.90;99.90
7155;DHT22;3619;53.784;10.440;2023-07-29T14:36:13;23.90;99.90
7155;DHT22;3619;53.784;10.440;2023-07-29T14:38:41;23.90;99.90
7155;DHT22;3619;53.784;10.440;2023-07-29T14:41:08;23.80;99.90
7155;DHT22;3619;53.784;10.440;2023-07-29T14:43:35;23.70;99.90
7155;DHT22;3619;53.784;10.440;2023-07-29T14:46:02;23.90;99.90
7155;DHT22;3619;53.784;10.440;2023-07-29T14:48:29;23.70;99.90
7155;DHT22;3619;53.784;10.440;2023-07-29T14:50:55;23.40;99.90
7155;DHT22;3619;53.784;10.440;2023-07-29T14:53:24;23.30;99.90
7155;DHT22;3619;53.784;10.440;2023-07-29T14:55:50;23.30;99.90
7155;DHT22;3619;53.784;10.440;2023-07-29T14:58:17;23.60;99.90
7155;DHT22;3619;53.784;10.440;2023-07-29T15:00:44;23.70;99.90
7155;DHT22;3619;53.784;10.440;2023-07-29T15:03:11;23.90;99.90
7155;DHT22;3619;53.784;10.440;2023-07-29T15:05:37;23.90;99.90
7155;DHT22;3619;53.784;10.440;2023-07-29T15:08:06;23.80;99.90
7155;DHT22;3619;53.784;10.440;2023-07-29T15:10:34;23.80;99.90
7155;DHT22;3619;53.784;10.440;2023-07-29T15:15:28;23.60;99.90
7155;DHT22;3619;53.784;10.440;2023-07-29T15:17:55;23.80;99.90
7155;DHT22;3619;53.784;10.440;2023-07-29T15:20:22;24.00;99.90
7155;DHT22;3619;53.784;10.440;2023-07-29T15:22:49;23.90;99.90
7155;DHT22;3619;53.784;10.440;2023-07-29T15:25:16;23.60;99.90
7155;DHT22;3619;53.784;10.440;2023-07-29T15:27:44;23.30;99.90
7155;DHT22;3619;53.784;10.440;2023-07-29T15:30:11;23.10;99.90
7155;DHT22;3619;53.784;10.440;2023-07-29T15:32:38;23.10;99.90
7155;DHT22;3619;53.784;10.440;2023-07-29T15:35:07;23.00;99.90
7155;DHT22;3619;53.784;10.440;2023-07-29T15:37:36;23.20;99.90
7155;DHT22;3619;53.784;10.440;2023-07-29T15:40:04;23.30;99.90
7155;DHT22;3619;53.784;10.440;2023-07-29T15:42:32;23.50;99.90
7155;DHT22;3619;53.784;10.440;2023-07-29T15:45:00;23.70;99.90
7155;DHT22;3619;53.784;10.440;2023-07-29T15:47:27;23.70;99.90
7155;DHT22;3619;53.784;10.440;2023-07-29T15:49:56;23.60;99.90
7155;DHT22;3619;53.784;10.440;2023-07-29T15:52:23;23.40;99.90
7155;DHT22;3619;53.784;10.440;2023-07-29T15:54:54;23.20;99.90